sensor_id;sensor_type;location;lat;lon;timestamp;P1;durP1;ratioP1;P2;durP2;ratioP2
16837;SDS011;19510;54.486;9.046;2024-01-30T00:01:54;28.88;;;14.27;;
16837;SDS011;19510;54.486;9.046;2024-01-30T00:04:19;31.35;;;14.55;;
16837;SDS011;19510;54.486;9.046;2024-01-30T00:06:45;27.00;;;14.15;;
16837;SDS011;19510;54.486;9.046;2024-01-30T00:09:14;28.17;;;13.77;;
16837;SDS011;19510;54.486;9.046;2024-01-30T00:11:40;27.75;;;13.93;;
16837;SDS011;19510;54.486;9.046;2024-01-30T00:14:06;24.02;;;13.73;;
16837;SDS011;19510;54.486;9.046;2024-01-30T00:16:34;29.98;;;14.35;;
16837;SDS011;19510;54.486;9.046;2024-01-30T00:18:59;27.58;;;15.35;;
16837;SDS011;19510;54.486;9.046;2024-01-30T00:21:27;29.08;;;14.45;;
16837;SDS011;19510;54.486;9.046;2024-01-30T00:23:53;26.73;;;14.43;;
16837;SDS011;19510;54.486;9.046;2024-01-30T00:26:20;27.83;;;14.02;;
16837;SDS011;19510;54.486;9.046;2024-01-30T00:28:48;33.53;;;15.30;;
16837;SDS011;19510;54.486;9.046;2024-01-30T00:31:14;29.52;;;14.35;;
16837;SDS011;19510;54.486;9.046;2024-01-30T00:33:40;31.92;;;13.88;;
16837;SDS011;19510;54.486;9.046;2024-01-30T00:36:06;31.65;;;14.73;;
16837;SDS011;19510;54.486;9.046;2024-01-30T00:38:32;28.60;;;14.18;;
16837;SDS011;19510;54.486;9.046;2024-01-30T00:40:58;29.15;;;13.30;;
16837;SDS011;19510;54.486;9.046;2024-01-30T00:43:24;29.05;;;14.45;;
16837;SDS011;19510;54.486;9.046;2024-01-30T00:45:50;27.35;;;13.63;;
16837;SDS011;19510;54.486;9.046;2024-01-30T00:48:17;32.92;;;14.38;;
16837;SDS011;19510;54.486;9.046;2024-01-30T00:50:43;29.10;;;14.10;;
16837;SDS011;19510;54.486;9.046;2024-01-30T00:53:09;29.00;;;14.45;;
16837;SDS011;19510;54.486;9.046;2024-01-30T00:55:35;31.73;;;14.93;;
16837;SDS011;19510;54.486;9.046;2024-01-30T00:58:00;27.42;;;14.60;;
16837;SDS011;19510;54.486;9.046;2024-01-30T01:00:26;28.70;;;14.68;;
16837;SDS011;19510;54.486;9.046;2024-01-30T01:02:54;26.55;;;13.50;;
16837;SDS011;19510;54.486;9.046;2024-01-30T01:05:20;31.45;;;14.95;;
16837;SDS011;19510;54.486;9.046;2024-01-30T01:07:46;29.73;;;14.82;;
16837;SDS011;19510;54.486;9.046;2024-01-30T01:10:17;30.13;;;14.80;;
16837;SDS011;19510;54.486;9.046;2024-01-30T01:12:43;32.95;;;14.75;;
16837;SDS011;19510;54.486;9.046;2024-01-30T01:15:12;30.00;;;14.50;;
16837;SDS011;19510;54.486;9.046;2024-01-30T01:17:38;32.10;;;14.82;;
16837;SDS011;19510;54.486;9.046;2024-01-30T01:20:04;28.23;;;13.93;;
16837;SDS011;19510;54.486;9.046;2024-01-30T01:22:33;24.75;;;13.73;;
16837;SDS011;19510;54.486;9.046;2024-01-30T01:25:00;27.92;;;13.93;;
16837;SDS011;19510;54.486;9.046;2024-01-30T01:27:26;27.55;;;13.77;;
16837;SDS011;19510;54.486;9.046;2024-01-30T01:29:52;23.95;;;13.93;;
16837;SDS011;19510;54.486;9.046;2024-01-30T01:32:17;24.90;;;13.55;;
16837;SDS011;19510;54.486;9.046;2024-01-30T01:34:43;29.63;;;14.38;;
16837;SDS011;19510;54.486;9.046;2024-01-30T01:37:09;27.33;;;14.27;;
16837;SDS011;19510;54.486;9.046;2024-01-30T01:39:37;26.60;;;14.00;;
16837;SDS011;19510;54.486;9.046;2024-01-30T01:42:05;27.42;;;13.32;;
16837;SDS011;19510;54.486;9.046;2024-01-30T01:44:31;24.85;;;13.18;;
16837;SDS011;19510;54.486;9.046;2024-01-30T01:46:57;23.42;;;13.57;;
16837;SDS011;19510;54.486;9.046;2024-01-30T01:49:24;27.35;;;13.20;;
16837;SDS011;19510;54.486;9.046;2024-01-30T01:51:51;25.55;;;13.25;;
16837;SDS011;19510;54.486;9.046;2024-01-30T01:54:21;24.38;;;13.82;;
16837;SDS011;19510;54.486;9.046;2024-01-30T01:56:49;25.05;;;13.20;;
16837;SDS011;19510;54.486;9.046;2024-01-30T01:59:16;25.63;;;13.30;;
16837;SDS011;19510;54.486;9.046;2024-01-30T02:01:45;21.95;;;13.55;;
16837;SDS011;19510;54.486;9.046;2024-01-30T02:04:14;25.40;;;13.18;;
16837;SDS011;19510;54.486;9.046;2024-01-30T02:06:40;24.65;;;12.27;;
16837;SDS011;19510;54.486;9.046;2024-01-30T02:09:07;22.85;;;12.82;;
16837;SDS011;19510;54.486;9.046;2024-01-30T02:11:35;23.05;;;12.38;;
16837;SDS011;19510;54.486;9.046;2024-01-30T02:14:02;23.35;;;12.45;;
16837;SDS011;19510;54.486;9.046;2024-01-30T02:16:31;22.15;;;13.25;;
16837;SDS011;19510;54.486;9.046;2024-01-30T02:18:57;24.35;;;13.00;;
16837;SDS011;19510;54.486;9.046;2024-01-30T02:21:22;21.70;;;12.43;;
16837;SDS011;19510;54.486;9.046;2024-01-30T02:23:48;21.65;;;12.52;;
16837;SDS011;19510;54.486;9.046;2024-01-30T02:26:15;22.75;;;13.00;;
16837;SDS011;19510;54.486;9.046;2024-01-30T02:28:41;25.90;;;12.65;;
16837;SDS011;19510;54.486;9.046;2024-01-30T02:31:07;21.10;;;12.07;;
16837;SDS011;19510;54.486;9.046;2024-01-30T02:33:33;23.05;;;13.13;;
16837;SDS011;19510;54.486;9.046;2024-01-30T02:35:58;21.33;;;13.40;;
16837;SDS011;19510;54.486;9.046;2024-01-30T02:38:24;25.33;;;13.15;;
16837;SDS011;19510;54.486;9.046;2024-01-30T02:40:51;22.60;;;12.60;;
16837;SDS011;19510;54.486;9.046;2024-01-30T02:43:17;20.40;;;11.80;;
16837;SDS011;19510;54.486;9.046;2024-01-30T02:45:43;23.98;;;13.20;;
16837;SDS011;19510;54.486;9.046;2024-01-30T02:48:11;20.45;;;12.10;;
16837;SDS011;19510;54.486;9.046;2024-01-30T02:50:36;23.02;;;11.80;;
16837;SDS011;19510;54.486;9.046;2024-01-30T02:53:02;22.63;;;12.63;;
16837;SDS011;19510;54.486;9.046;2024-01-30T02:55:28;21.77;;;12.45;;
16837;SDS011;19510;54.486;9.046;2024-01-30T02:57:53;24.50;;;13.10;;
16837;SDS011;19510;54.486;9.046;2024-01-30T03:00:19;30.05;;;11.95;;
16837;SDS011;19510;54.486;9.046;2024-01-30T03:02:45;22.80;;;12.45;;
16837;SDS011;19510;54.486;9.046;2024-01-30T03:05:11;21.55;;;12.32;;
16837;SDS011;19510;54.486;9.046;2024-01-30T03:07:39;22.52;;;12.18;;
16837;SDS011;19510;54.486;9.046;2024-01-30T03:10:05;23.90;;;12.63;;
16837;SDS011;19510;54.486;9.046;2024-01-30T03:12:31;23.17;;;12.88;;
16837;SDS011;19510;54.486;9.046;2024-01-30T03:14:57;26.27;;;13.45;;
16837;SDS011;19510;54.486;9.046;2024-01-30T03:17:22;20.75;;;13.00;;
16837;SDS011;19510;54.486;9.046;2024-01-30T03:19:49;22.58;;;13.05;;
16837;SDS011;19510;54.486;9.046;2024-01-30T03:22:15;21.23;;;12.90;;
16837;SDS011;19510;54.486;9.046;2024-01-30T03:24:41;21.77;;;12.70;;
16837;SDS011;19510;54.486;9.046;2024-01-30T03:27:09;22.05;;;12.00;;
16837;SDS011;19510;54.486;9.046;2024-01-30T03:29:34;23.25;;;12.52;;
16837;SDS011;19510;54.486;9.046;2024-01-30T03:32:03;24.52;;;13.13;;
16837;SDS011;19510;54.486;9.046;2024-01-30T03:34:29;25.98;;;13.05;;
16837;SDS011;19510;54.486;9.046;2024-01-30T03:36:55;23.08;;;12.63;;
16837;SDS011;19510;54.486;9.046;2024-01-30T03:39:21;23.20;;;12.60;;
16837;SDS011;19510;54.486;9.046;2024-01-30T03:41:46;26.40;;;12.75;;
16837;SDS011;19510;54.486;9.046;2024-01-30T03:44:12;21.55;;;12.50;;
16837;SDS011;19510;54.486;9.046;2024-01-30T03:46:38;21.83;;;12.27;;
16837;SDS011;19510;54.486;9.046;2024-01-30T03:49:03;21.00;;;12.82;;
16837;SDS011;19510;54.486;9.046;2024-01-30T03:51:29;20.40;;;12.75;;
16837;SDS011;19510;54.486;9.046;2024-01-30T03:53:55;20.92;;;12.43;;
16837;SDS011;19510;54.486;9.046;2024-01-30T03:56:20;21.25;;;12.32;;
16837;SDS011;19510;54.486;9.046;2024-01-30T03:58:46;19.08;;;11.75;;
16837;SDS011;19510;54.486;9.046;2024-01-30T04:01:15;19.13;;;12.05;;
16837;SDS011;19510;54.486;9.046;2024-01-30T04:03:41;22.95;;;12.40;;
16837;SDS011;19510;54.486;9.046;2024-01-30T04:06:07;20.73;;;12.15;;
16837;SDS011;19510;54.486;9.046;2024-01-30T04:08:33;20.77;;;12.10;;
16837;SDS011;19510;54.486;9.046;2024-01-30T04:11:02;23.77;;;11.93;;
16837;SDS011;19510;54.486;9.046;2024-01-30T04:13:32;25.05;;;12.65;;
16837;SDS011;19510;54.486;9.046;2024-01-30T04:16:01;24.30;;;13.40;;
16837;SDS011;19510;54.486;9.046;2024-01-30T04:18:28;27.08;;;12.63;;
16837;SDS011;19510;54.486;9.046;2024-01-30T04:20:54;20.65;;;11.98;;
16837;SDS011;19510;54.486;9.046;2024-01-30T04:23:20;18.45;;;10.80;;
16837;SDS011;19510;54.486;9.046;2024-01-30T04:25:45;20.95;;;11.77;;
16837;SDS011;19510;54.486;9.046;2024-01-30T04:28:11;20.98;;;12.73;;
16837;SDS011;19510;54.486;9.046;2024-01-30T04:30:37;20.63;;;12.10;;
16837;SDS011;19510;54.486;9.046;2024-01-30T04:33:06;21.90;;;12.57;;
16837;SDS011;19510;54.486;9.046;2024-01-30T04:35:33;21.42;;;12.23;;
16837;SDS011;19510;54.486;9.046;2024-01-30T04:37:58;23.05;;;12.20;;
16837;SDS011;19510;54.486;9.046;2024-01-30T04:40:26;22.35;;;12.68;;
16837;SDS011;19510;54.486;9.046;2024-01-30T04:42:52;20.10;;;12.80;;
16837;SDS011;19510;54.486;9.046;2024-01-30T04:45:18;20.65;;;11.98;;
16837;SDS011;19510;54.486;9.046;2024-01-30T04:47:43;21.00;;;12.20;;
16837;SDS011;19510;54.486;9.046;2024-01-30T04:50:09;20.85;;;12.25;;
16837;SDS011;19510;54.486;9.046;2024-01-30T04:52:35;22.73;;;12.82;;
16837;SDS011;19510;54.486;9.046;2024-01-30T04:55:01;22.95;;;12.38;;
16837;SDS011;19510;54.486;9.046;2024-01-30T04:57:27;21.70;;;12.45;;
16837;SDS011;19510;54.486;9.046;2024-01-30T04:59:55;21.73;;;12.95;;
16837;SDS011;19510;54.486;9.046;2024-01-30T05:02:21;21.13;;;12.20;;
16837;SDS011;19510;54.486;9.046;2024-01-30T05:04:46;19.52;;;11.98;;
16837;SDS011;19510;54.486;9.046;2024-01-30T05:07:12;20.58;;;12.25;;
16837;SDS011;19510;54.486;9.046;2024-01-30T05:09:40;22.10;;;12.45;;
16837;SDS011;19510;54.486;9.046;2024-01-30T05:12:10;20.42;;;11.73;;
16837;SDS011;19510;54.486;9.046;2024-01-30T05:14:38;20.35;;;12.05;;
16837;SDS011;19510;54.486;9.046;2024-01-30T05:17:06;20.65;;;12.93;;
16837;SDS011;19510;54.486;9.046;2024-01-30T05:19:34;19.67;;;11.98;;
16837;SDS011;19510;54.486;9.046;2024-01-30T05:22:00;22.95;;;12.88;;
16837;SDS011;19510;54.486;9.046;2024-01-30T05:24:25;20.75;;;12.55;;
16837;SDS011;19510;54.486;9.046;2024-01-30T05:26:51;18.58;;;11.40;;
16837;SDS011;19510;54.486;9.046;2024-01-30T05:29:17;22.05;;;13.18;;
16837;SDS011;19510;54.486;9.046;2024-01-30T05:31:44;20.52;;;12.27;;
16837;SDS011;19510;54.486;9.046;2024-01-30T05:34:12;20.23;;;12.82;;
16837;SDS011;19510;54.486;9.046;2024-01-30T05:36:37;19.90;;;12.23;;
16837;SDS011;19510;54.486;9.046;2024-01-30T05:39:03;21.38;;;12.07;;
16837;SDS011;19510;54.486;9.046;2024-01-30T05:41:29;25.55;;;13.07;;
16837;SDS011;19510;54.486;9.046;2024-01-30T05:43:54;23.25;;;12.13;;
16837;SDS011;19510;54.486;9.046;2024-01-30T05:46:20;23.03;;;12.73;;
16837;SDS011;19510;54.486;9.046;2024-01-30T05:48:46;25.70;;;13.50;;
16837;SDS011;19510;54.486;9.046;2024-01-30T05:51:14;19.00;;;12.37;;
16837;SDS011;19510;54.486;9.046;2024-01-30T05:53:40;21.05;;;13.30;;
16837;SDS011;19510;54.486;9.046;2024-01-30T05:56:08;22.27;;;12.68;;
16837;SDS011;19510;54.486;9.046;2024-01-30T05:58:34;24.15;;;12.63;;
16837;SDS011;19510;54.486;9.046;2024-01-30T06:00:59;22.98;;;12.98;;
16837;SDS011;19510;54.486;9.046;2024-01-30T06:03:25;22.98;;;13.68;;
16837;SDS011;19510;54.486;9.046;2024-01-30T06:05:51;21.77;;;12.90;;
16837;SDS011;19510;54.486;9.046;2024-01-30T06:08:17;19.58;;;12.35;;
16837;SDS011;19510;54.486;9.046;2024-01-30T06:10:43;22.05;;;13.38;;
16837;SDS011;19510;54.486;9.046;2024-01-30T06:13:12;20.10;;;12.90;;
16837;SDS011;19510;54.486;9.046;2024-01-30T06:15:39;22.47;;;12.47;;
16837;SDS011;19510;54.486;9.046;2024-01-30T06:18:04;24.58;;;12.73;;
16837;SDS011;19510;54.486;9.046;2024-01-30T06:20:30;21.90;;;12.60;;
16837;SDS011;19510;54.486;9.046;2024-01-30T06:22:56;20.13;;;11.45;;
16837;SDS011;19510;54.486;9.046;2024-01-30T06:25:21;20.30;;;12.53;;
16837;SDS011;19510;54.486;9.046;2024-01-30T06:27:47;24.60;;;12.87;;
16837;SDS011;19510;54.486;9.046;2024-01-30T06:30:13;16.88;;;11.05;;
16837;SDS011;19510;54.486;9.046;2024-01-30T06:32:39;19.87;;;11.73;;
16837;SDS011;19510;54.486;9.046;2024-01-30T06:35:08;23.67;;;12.33;;
16837;SDS011;19510;54.486;9.046;2024-01-30T06:37:33;20.03;;;11.73;;
16837;SDS011;19510;54.486;9.046;2024-01-30T06:40:02;21.73;;;12.20;;
16837;SDS011;19510;54.486;9.046;2024-01-30T06:42:30;22.60;;;12.03;;
16837;SDS011;19510;54.486;9.046;2024-01-30T06:44:56;18.50;;;11.03;;
16837;SDS011;19510;54.486;9.046;2024-01-30T06:47:22;19.43;;;11.23;;
16837;SDS011;19510;54.486;9.046;2024-01-30T06:49:50;22.17;;;11.70;;
16837;SDS011;19510;54.486;9.046;2024-01-30T06:52:16;20.90;;;11.67;;
16837;SDS011;19510;54.486;9.046;2024-01-30T06:54:42;20.23;;;11.77;;
16837;SDS011;19510;54.486;9.046;2024-01-30T06:57:07;22.23;;;11.53;;
16837;SDS011;19510;54.486;9.046;2024-01-30T06:59:36;23.00;;;11.67;;
16837;SDS011;19510;54.486;9.046;2024-01-30T07:02:06;24.27;;;11.63;;
16837;SDS011;19510;54.486;9.046;2024-01-30T07:04:32;23.90;;;12.07;;
16837;SDS011;19510;54.486;9.046;2024-01-30T07:06:58;22.03;;;12.80;;
16837;SDS011;19510;54.486;9.046;2024-01-30T07:09:28;17.57;;;10.50;;
16837;SDS011;19510;54.486;9.046;2024-01-30T07:11:54;19.17;;;12.13;;
16837;SDS011;19510;54.486;9.046;2024-01-30T07:14:23;20.17;;;12.07;;
16837;SDS011;19510;54.486;9.046;2024-01-30T07:16:51;22.50;;;11.23;;
16837;SDS011;19510;54.486;9.046;2024-01-30T07:19:21;18.73;;;11.73;;
16837;SDS011;19510;54.486;9.046;2024-01-30T07:21:49;19.37;;;12.13;;
16837;SDS011;19510;54.486;9.046;2024-01-30T07:24:15;19.87;;;11.80;;
16837;SDS011;19510;54.486;9.046;2024-01-30T07:26:41;19.00;;;11.23;;
16837;SDS011;19510;54.486;9.046;2024-01-30T07:29:06;22.43;;;13.07;;
16837;SDS011;19510;54.486;9.046;2024-01-30T07:31:32;22.83;;;13.27;;
16837;SDS011;19510;54.486;9.046;2024-01-30T07:34:00;20.60;;;12.57;;
16837;SDS011;19510;54.486;9.046;2024-01-30T07:36:26;23.37;;;11.97;;
16837;SDS011;19510;54.486;9.046;2024-01-30T07:38:54;19.43;;;11.53;;
16837;SDS011;19510;54.486;9.046;2024-01-30T07:41:20;23.50;;;12.07;;
16837;SDS011;19510;54.486;9.046;2024-01-30T07:43:48;22.27;;;12.60;;
16837;SDS011;19510;54.486;9.046;2024-01-30T07:46:17;18.83;;;11.53;;
16837;SDS011;19510;54.486;9.046;2024-01-30T07:48:42;20.13;;;11.80;;
16837;SDS011;19510;54.486;9.046;2024-01-30T07:51:16;20.60;;;11.83;;
16837;SDS011;19510;54.486;9.046;2024-01-30T07:53:41;17.23;;;11.23;;
16837;SDS011;19510;54.486;9.046;2024-01-30T07:56:07;22.33;;;12.43;;
16837;SDS011;19510;54.486;9.046;2024-01-30T07:58:33;18.03;;;11.43;;
16837;SDS011;19510;54.486;9.046;2024-01-30T08:01:00;19.80;;;11.70;;
16837;SDS011;19510;54.486;9.046;2024-01-30T08:03:28;19.30;;;11.50;;
16837;SDS011;19510;54.486;9.046;2024-01-30T08:05:54;17.23;;;11.03;;
16837;SDS011;19510;54.486;9.046;2024-01-30T08:08:22;21.00;;;11.93;;
16837;SDS011;19510;54.486;9.046;2024-01-30T08:10:48;22.87;;;12.50;;
16837;SDS011;19510;54.486;9.046;2024-01-30T08:13:14;18.20;;;11.27;;
16837;SDS011;19510;54.486;9.046;2024-01-30T08:15:42;22.03;;;11.90;;
16837;SDS011;19510;54.486;9.046;2024-01-30T08:18:08;21.23;;;11.67;;
16837;SDS011;19510;54.486;9.046;2024-01-30T08:20:36;20.97;;;11.80;;
16837;SDS011;19510;54.486;9.046;2024-01-30T08:23:04;18.53;;;11.23;;
16837;SDS011;19510;54.486;9.046;2024-01-30T08:25:30;18.47;;;11.20;;
16837;SDS011;19510;54.486;9.046;2024-01-30T08:27:58;20.60;;;11.97;;
16837;SDS011;19510;54.486;9.046;2024-01-30T08:30:25;18.87;;;11.97;;
16837;SDS011;19510;54.486;9.046;2024-01-30T08:32:52;17.80;;;11.77;;
16837;SDS011;19510;54.486;9.046;2024-01-30T08:35:21;19.43;;;10.93;;
16837;SDS011;19510;54.486;9.046;2024-01-30T08:37:46;18.57;;;11.40;;
16837;SDS011;19510;54.486;9.046;2024-01-30T08:40:12;20.43;;;11.57;;
16837;SDS011;19510;54.486;9.046;2024-01-30T08:42:38;15.37;;;10.50;;
16837;SDS011;19510;54.486;9.046;2024-01-30T08:45:06;17.10;;;10.80;;
16837;SDS011;19510;54.486;9.046;2024-01-30T08:47:32;17.53;;;11.00;;
16837;SDS011;19510;54.486;9.046;2024-01-30T08:49:58;19.00;;;11.13;;
16837;SDS011;19510;54.486;9.046;2024-01-30T08:52:24;15.83;;;10.57;;
16837;SDS011;19510;54.486;9.046;2024-01-30T08:54:50;18.03;;;10.93;;
16837;SDS011;19510;54.486;9.046;2024-01-30T08:57:15;19.97;;;12.37;;
16837;SDS011;19510;54.486;9.046;2024-01-30T08:59:41;19.70;;;10.90;;
16837;SDS011;19510;54.486;9.046;2024-01-30T09:02:09;20.83;;;11.23;;
16837;SDS011;19510;54.486;9.046;2024-01-30T09:04:38;18.20;;;11.13;;
16837;SDS011;19510;54.486;9.046;2024-01-30T09:07:04;17.07;;;10.80;;
16837;SDS011;19510;54.486;9.046;2024-01-30T09:09:33;19.43;;;11.90;;
16837;SDS011;19510;54.486;9.046;2024-01-30T09:11:59;17.17;;;11.13;;
16837;SDS011;19510;54.486;9.046;2024-01-30T09:14:32;18.43;;;10.20;;
16837;SDS011;19510;54.486;9.046;2024-01-30T09:16:57;16.63;;;10.77;;
16837;SDS011;19510;54.486;9.046;2024-01-30T09:19:23;21.47;;;11.30;;
16837;SDS011;19510;54.486;9.046;2024-01-30T09:21:51;18.90;;;11.43;;
16837;SDS011;19510;54.486;9.046;2024-01-30T09:24:19;21.57;;;12.20;;
16837;SDS011;19510;54.486;9.046;2024-01-30T09:26:47;16.83;;;10.63;;
16837;SDS011;19510;54.486;9.046;2024-01-30T09:29:13;20.83;;;11.87;;
16837;SDS011;19510;54.486;9.046;2024-01-30T09:31:44;18.67;;;12.00;;
16837;SDS011;19510;54.486;9.046;2024-01-30T09:34:13;16.23;;;10.23;;
16837;SDS011;19510;54.486;9.046;2024-01-30T09:36:41;20.73;;;11.97;;
16837;SDS011;19510;54.486;9.046;2024-01-30T09:39:06;18.37;;;11.27;;
16837;SDS011;19510;54.486;9.046;2024-01-30T09:41:37;19.20;;;10.93;;
16837;SDS011;19510;54.486;9.046;2024-01-30T09:44:16;18.50;;;10.53;;
16837;SDS011;19510;54.486;9.046;2024-01-30T09:46:44;18.63;;;10.47;;
16837;SDS011;19510;54.486;9.046;2024-01-30T09:49:15;18.33;;;11.13;;
16837;SDS011;19510;54.486;9.046;2024-01-30T09:51:43;16.17;;;10.67;;
16837;SDS011;19510;54.486;9.046;2024-01-30T09:54:14;16.75;;;10.65;;
16837;SDS011;19510;54.486;9.046;2024-01-30T09:56:41;19.23;;;10.48;;
16837;SDS011;19510;54.486;9.046;2024-01-30T09:59:08;16.83;;;10.50;;
16837;SDS011;19510;54.486;9.046;2024-01-30T10:01:34;18.52;;;10.30;;
16837;SDS011;19510;54.486;9.046;2024-01-30T10:04:01;17.40;;;10.25;;
16837;SDS011;19510;54.486;9.046;2024-01-30T10:06:27;18.20;;;10.02;;
16837;SDS011;19510;54.486;9.046;2024-01-30T10:08:53;18.13;;;10.73;;
16837;SDS011;19510;54.486;9.046;2024-01-30T10:11:19;18.55;;;10.60;;
16837;SDS011;19510;54.486;9.046;2024-01-30T10:13:45;14.52;;;10.35;;
16837;SDS011;19510;54.486;9.046;2024-01-30T10:16:13;17.67;;;10.73;;
16837;SDS011;19510;54.486;9.046;2024-01-30T10:18:42;20.92;;;11.10;;
16837;SDS011;19510;54.486;9.046;2024-01-30T10:21:10;18.52;;;10.77;;
16837;SDS011;19510;54.486;9.046;2024-01-30T10:23:38;19.65;;;10.00;;
16837;SDS011;19510;54.486;9.046;2024-01-30T10:26:08;17.98;;;10.52;;
16837;SDS011;19510;54.486;9.046;2024-01-30T10:28:36;17.88;;;10.63;;
16837;SDS011;19510;54.486;9.046;2024-01-30T10:31:02;16.40;;;10.68;;
16837;SDS011;19510;54.486;9.046;2024-01-30T10:33:36;19.80;;;10.48;;
16837;SDS011;19510;54.486;9.046;2024-01-30T10:36:04;18.00;;;10.20;;
16837;SDS011;19510;54.486;9.046;2024-01-30T10:38:35;19.00;;;10.20;;
16837;SDS011;19510;54.486;9.046;2024-01-30T10:41:03;16.35;;;10.63;;
16837;SDS011;19510;54.486;9.046;2024-01-30T10:43:31;14.80;;;9.80;;
16837;SDS011;19510;54.486;9.046;2024-01-30T10:46:03;17.20;;;10.25;;
16837;SDS011;19510;54.486;9.046;2024-01-30T10:48:37;15.27;;;10.18;;
16837;SDS011;19510;54.486;9.046;2024-01-30T10:51:08;16.35;;;9.82;;
16837;SDS011;19510;54.486;9.046;2024-01-30T10:53:36;16.80;;;10.05;;
16837;SDS011;19510;54.486;9.046;2024-01-30T10:56:04;17.27;;;10.32;;
16837;SDS011;19510;54.486;9.046;2024-01-30T10:58:33;16.63;;;9.27;;
16837;SDS011;19510;54.486;9.046;2024-01-30T11:01:01;16.15;;;9.70;;
16837;SDS011;19510;54.486;9.046;2024-01-30T11:03:31;20.00;;;10.38;;
16837;SDS011;19510;54.486;9.046;2024-01-30T11:06:01;14.95;;;9.13;;
16837;SDS011;19510;54.486;9.046;2024-01-30T11:08:28;16.98;;;9.50;;
16837;SDS011;19510;54.486;9.046;2024-01-30T11:10:57;17.20;;;9.85;;
16837;SDS011;19510;54.486;9.046;2024-01-30T11:13:27;15.27;;;9.23;;
16837;SDS011;19510;54.486;9.046;2024-01-30T11:15:54;16.38;;;9.45;;
16837;SDS011;19510;54.486;9.046;2024-01-30T11:18:23;19.67;;;9.85;;
16837;SDS011;19510;54.486;9.046;2024-01-30T11:20:51;15.18;;;8.90;;
16837;SDS011;19510;54.486;9.046;2024-01-30T11:23:17;16.27;;;9.57;;
16837;SDS011;19510;54.486;9.046;2024-01-30T11:25:43;15.65;;;9.48;;
16837;SDS011;19510;54.486;9.046;2024-01-30T11:28:13;14.02;;;8.88;;
16837;SDS011;19510;54.486;9.046;2024-01-30T11:30:43;19.02;;;9.90;;
16837;SDS011;19510;54.486;9.046;2024-01-30T11:35:37;14.43;;;8.35;;
16837;SDS011;19510;54.486;9.046;2024-01-30T11:38:07;16.00;;;9.65;;
16837;SDS011;19510;54.486;9.046;2024-01-30T11:40:34;13.70;;;9.35;;
16837;SDS011;19510;54.486;9.046;2024-01-30T11:43:03;16.90;;;9.18;;
16837;SDS011;19510;54.486;9.046;2024-01-30T11:45:30;17.75;;;10.00;;
16837;SDS011;19510;54.486;9.046;2024-01-30T11:47:56;15.98;;;9.70;;
16837;SDS011;19510;54.486;9.046;2024-01-30T11:50:23;16.73;;;9.60;;
16837;SDS011;19510;54.486;9.046;2024-01-30T11:52:50;14.75;;;9.65;;
16837;SDS011;19510;54.486;9.046;2024-01-30T11:55:18;16.58;;;9.30;;
16837;SDS011;19510;54.486;9.046;2024-01-30T11:57:44;18.92;;;9.68;;
16837;SDS011;19510;54.486;9.046;2024-01-30T12:00:16;15.35;;;9.43;;
16837;SDS011;19510;54.486;9.046;2024-01-30T12:02:48;15.10;;;10.10;;
16837;SDS011;19510;54.486;9.046;2024-01-30T12:05:21;17.83;;;9.80;;
16837;SDS011;19510;54.486;9.046;2024-01-30T12:07:49;16.50;;;9.65;;
16837;SDS011;19510;54.486;9.046;2024-01-30T12:10:15;19.88;;;9.63;;
16837;SDS011;19510;54.486;9.046;2024-01-30T12:12:43;15.13;;;9.40;;
16837;SDS011;19510;54.486;9.046;2024-01-30T12:15:14;14.90;;;9.23;;
16837;SDS011;19510;54.486;9.046;2024-01-30T12:17:42;15.85;;;8.55;;
16837;SDS011;19510;54.486;9.046;2024-01-30T12:22:41;17.17;;;9.95;;
16837;SDS011;19510;54.486;9.046;2024-01-30T12:25:08;15.65;;;9.07;;
16837;SDS011;19510;54.486;9.046;2024-01-30T12:27:38;17.55;;;10.13;;
16837;SDS011;19510;54.486;9.046;2024-01-30T12:30:11;18.23;;;9.50;;
16837;SDS011;19510;54.486;9.046;2024-01-30T12:32:42;19.30;;;9.50;;
16837;SDS011;19510;54.486;9.046;2024-01-30T12:35:13;16.85;;;9.93;;
16837;SDS011;19510;54.486;9.046;2024-01-30T12:37:40;14.25;;;8.57;;
16837;SDS011;19510;54.486;9.046;2024-01-30T12:40:09;13.38;;;9.05;;
16837;SDS011;19510;54.486;9.046;2024-01-30T12:42:36;15.73;;;9.27;;
16837;SDS011;19510;54.486;9.046;2024-01-30T12:45:03;23.13;;;10.52;;
16837;SDS011;19510;54.486;9.046;2024-01-30T12:47:29;16.40;;;9.68;;
16837;SDS011;19510;54.486;9.046;2024-01-30T12:49:55;14.70;;;9.13;;
16837;SDS011;19510;54.486;9.046;2024-01-30T12:52:21;15.68;;;9.80;;
16837;SDS011;19510;54.486;9.046;2024-01-30T12:54:48;14.35;;;8.77;;
16837;SDS011;19510;54.486;9.046;2024-01-30T12:57:17;17.15;;;9.18;;
16837;SDS011;19510;54.486;9.046;2024-01-30T12:59:43;17.40;;;10.05;;
16837;SDS011;19510;54.486;9.046;2024-01-30T13:02:11;18.10;;;9.20;;
16837;SDS011;19510;54.486;9.046;2024-01-30T13:04:39;14.65;;;9.25;;
16837;SDS011;19510;54.486;9.046;2024-01-30T13:07:05;15.75;;;8.60;;
16837;SDS011;19510;54.486;9.046;2024-01-30T13:09:31;15.70;;;9.40;;
16837;SDS011;19510;54.486;9.046;2024-01-30T13:11:57;19.02;;;9.45;;
16837;SDS011;19510;54.486;9.046;2024-01-30T13:14:28;16.60;;;9.10;;
16837;SDS011;19510;54.486;9.046;2024-01-30T13:16:53;17.40;;;9.10;;
16837;SDS011;19510;54.486;9.046;2024-01-30T13:19:19;22.15;;;11.85;;
16837;SDS011;19510;54.486;9.046;2024-01-30T13:21:45;18.15;;;9.38;;
16837;SDS011;19510;54.486;9.046;2024-01-30T13:24:12;17.67;;;8.88;;
16837;SDS011;19510;54.486;9.046;2024-01-30T13:26:39;20.67;;;10.00;;
16837;SDS011;19510;54.486;9.046;2024-01-30T13:29:07;19.50;;;8.68;;
16837;SDS011;19510;54.486;9.046;2024-01-30T13:31:33;17.40;;;8.23;;
16837;SDS011;19510;54.486;9.046;2024-01-30T13:33:59;21.90;;;10.32;;
16837;SDS011;19510;54.486;9.046;2024-01-30T13:36:27;17.50;;;9.13;;
16837;SDS011;19510;54.486;9.046;2024-01-30T13:38:53;15.57;;;8.85;;
16837;SDS011;19510;54.486;9.046;2024-01-30T13:41:21;13.95;;;8.32;;
16837;SDS011;19510;54.486;9.046;2024-01-30T13:43:48;16.80;;;8.65;;
16837;SDS011;19510;54.486;9.046;2024-01-30T13:46:14;20.25;;;9.52;;
16837;SDS011;19510;54.486;9.046;2024-01-30T13:48:42;15.27;;;8.00;;
16837;SDS011;19510;54.486;9.046;2024-01-30T13:51:08;15.32;;;8.65;;
16837;SDS011;19510;54.486;9.046;2024-01-30T13:53:33;16.88;;;8.45;;
16837;SDS011;19510;54.486;9.046;2024-01-30T13:56:03;17.52;;;7.88;;
16837;SDS011;19510;54.486;9.046;2024-01-30T13:58:32;14.80;;;8.10;;
16837;SDS011;19510;54.486;9.046;2024-01-30T14:00:58;12.68;;;7.57;;
16837;SDS011;19510;54.486;9.046;2024-01-30T14:03:26;12.70;;;8.38;;
16837;SDS011;19510;54.486;9.046;2024-01-30T14:05:52;19.20;;;8.38;;
16837;SDS011;19510;54.486;9.046;2024-01-30T14:08:18;15.63;;;7.53;;
16837;SDS011;19510;54.486;9.046;2024-01-30T14:10:46;14.18;;;8.05;;
16837;SDS011;19510;54.486;9.046;2024-01-30T14:13:12;12.88;;;6.82;;
16837;SDS011;19510;54.486;9.046;2024-01-30T14:15:38;16.10;;;7.25;;
16837;SDS011;19510;54.486;9.046;2024-01-30T14:18:04;11.13;;;6.65;;
16837;SDS011;19510;54.486;9.046;2024-01-30T14:20:33;11.68;;;6.78;;
16837;SDS011;19510;54.486;9.046;2024-01-30T14:22:59;15.07;;;6.57;;
16837;SDS011;19510;54.486;9.046;2024-01-30T14:25:27;14.23;;;6.38;;
16837;SDS011;19510;54.486;9.046;2024-01-30T14:27:52;10.13;;;5.97;;